sensor_id;sensor_type;location;lat;lon;timestamp;P1;durP1;ratioP1;P2;durP2;ratioP2
64018;SDS011;66942;52.138;5.216;2023-04-15T00:00:16;7.2;;;5.4;;
64018;SDS011;66942;52.138;5.216;2023-04-15T00:01:52;6.8;;;5.5;;
64018;SDS011;66942;52.138;5.216;2023-04-15T00:03:28;6.2;;;5.6;;
64018;SDS011;66942;52.138;5.216;2023-04-15T00:06:41;5.4;;;4.91;;
64018;SDS011;66942;52.138;5.216;2023-04-15T00:08:17;9.6;;;5.7;;
64018;SDS011;66942;52.138;5.216;2023-04-15T00:09:54;8.0;;;5.9;;
64018;SDS011;66942;52.138;5.216;2023-04-15T00:13:06;7.4;;;5.6;;
64018;SDS011;66942;52.138;5.216;2023-04-15T00:14:42;7.1;;;5.7;;
64018;SDS011;66942;52.138;5.216;2023-04-15T00:16:18;7.8;;;6.1;;
64018;SDS011;66942;52.138;5.216;2023-04-15T00:19:30;6.7;;;5.7;;
64018;SDS011;66942;52.138;5.216;2023-04-15T00:21:06;6.3;;;5.7;;
64018;SDS011;66942;52.138;5.216;2023-04-15T00:22:43;6.1;;;5.5;;
64018;SDS011;66942;52.138;5.216;2023-04-15T00:25:55;9.21;;;5.9;;
64018;SDS011;66942;52.138;5.216;2023-04-15T00:27:31;7.1;;;5.9;;
64018;SDS011;66942;52.138;5.216;2023-04-15T00:29:07;6.9;;;5.5;;
64018;SDS011;66942;52.138;5.216;2023-04-15T00:30:43;6.4;;;5.8;;
64018;SDS011;66942;52.138;5.216;2023-04-15T00:33:57;7.1;;;5.7;;
64018;SDS011;66942;52.138;5.216;2023-04-15T00:35:33;6.1;;;5.6;;
64018;SDS011;66942;52.138;5.216;2023-04-15T00:37:09;7.0;;;5.6;;
64018;SDS011;66942;52.138;5.216;2023-04-15T00:40:22;6.0;;;5.5;;
64018;SDS011;66942;52.138;5.216;2023-04-15T00:41:58;7.4;;;5.9;;
64018;SDS011;66942;52.138;5.216;2023-04-15T00:43:34;6.0;;;5.4;;
64018;SDS011;66942;52.138;5.216;2023-04-15T00:46:47;6.3;;;5.3;;
64018;SDS011;66942;52.138;5.216;2023-04-15T00:48:26;5.6;;;5.0;;
64018;SDS011;66942;52.138;5.216;2023-04-15T00:50:03;6.9;;;5.7;;
64018;SDS011;66942;52.138;5.216;2023-04-15T00:51:40;6.0;;;5.4;;
64018;SDS011;66942;52.138;5.216;2023-04-15T00:54:52;6.3;;;5.7;;
64018;SDS011;66942;52.138;5.216;2023-04-15T00:56:31;6.2;;;5.6;;
64018;SDS011;66942;52.138;5.216;2023-04-15T00:58:10;6.6;;;6.0;;
64018;SDS011;66942;52.138;5.216;2023-04-15T01:01:23;6.2;;;5.4;;
64018;SDS011;66942;52.138;5.216;2023-04-15T01:03:00;6.5;;;5.6;;
64018;SDS011;66942;52.138;5.216;2023-04-15T01:04:36;6.8;;;6.1;;
64018;SDS011;66942;52.138;5.216;2023-04-15T01:06:12;6.5;;;5.6;;
64018;SDS011;66942;52.138;5.216;2023-04-15T01:09:24;5.9;;;5.4;;
64018;SDS011;66942;52.138;5.216;2023-04-15T01:11:00;6.4;;;5.7;;
64018;SDS011;66942;52.138;5.216;2023-04-15T01:12:37;6.6;;;6.0;;
64018;SDS011;66942;52.138;5.216;2023-04-15T01:15:50;6.7;;;6.2;;
64018;SDS011;66942;52.138;5.216;2023-04-15T01:17:27;7.6;;;6.2;;
64018;SDS011;66942;52.138;5.216;2023-04-15T01:19:03;7.9;;;6.4;;
64018;SDS011;66942;52.138;5.216;2023-04-15T01:22:16;6.9;;;5.9;;
64018;SDS011;66942;52.138;5.216;2023-04-15T01:23:52;6.9;;;6.2;;
64018;SDS011;66942;52.138;5.216;2023-04-15T01:25:30;8.0;;;6.4;;
64018;SDS011;66942;52.138;5.216;2023-04-15T01:28:43;7.1;;;6.4;;
64018;SDS011;66942;52.138;5.216;2023-04-15T01:30:19;6.7;;;6.1;;
64018;SDS011;66942;52.138;5.216;2023-04-15T01:31:55;6.4;;;5.9;;
64018;SDS011;66942;52.138;5.216;2023-04-15T01:33:31;6.6;;;6.0;;
64018;SDS011;66942;52.138;5.216;2023-04-15T01:36:43;7.1;;;6.5;;
64018;SDS011;66942;52.138;5.216;2023-04-15T01:38:19;6.7;;;6.1;;
64018;SDS011;66942;52.138;5.216;2023-04-15T01:39:56;7.8;;;5.9;;
64018;SDS011;66942;52.138;5.216;2023-04-15T01:43:08;7.1;;;6.4;;
64018;SDS011;66942;52.138;5.216;2023-04-15T01:44:44;7.4;;;6.7;;
64018;SDS011;66942;52.138;5.216;2023-04-15T01:46:21;7.2;;;6.6;;
64018;SDS011;66942;52.138;5.216;2023-04-15T01:49:33;7.5;;;6.8;;
64018;SDS011;66942;52.138;5.216;2023-04-15T01:51:10;7.3;;;6.6;;
64018;SDS011;66942;52.138;5.216;2023-04-15T01:52:46;7.0;;;6.4;;
64018;SDS011;66942;52.138;5.216;2023-04-15T01:54:22;7.4;;;6.5;;
64018;SDS011;66942;52.138;5.216;2023-04-15T01:57:34;7.1;;;6.4;;
64018;SDS011;66942;52.138;5.216;2023-04-15T01:59:10;7.6;;;6.9;;
64018;SDS011;66942;52.138;5.216;2023-04-15T02:00:46;7.3;;;6.7;;
64018;SDS011;66942;52.138;5.216;2023-04-15T02:03:59;8.2;;;6.8;;
64018;SDS011;66942;52.138;5.216;2023-04-15T02:05:35;7.2;;;6.6;;
64018;SDS011;66942;52.138;5.216;2023-04-15T02:07:11;7.6;;;6.8;;
64018;SDS011;66942;52.138;5.216;2023-04-15T02:10:23;7.9;;;7.2;;
64018;SDS011;66942;52.138;5.216;2023-04-15T02:11:59;8.31;;;7.6;;
64018;SDS011;66942;52.138;5.216;2023-04-15T02:13:35;7.7;;;7.0;;
64018;SDS011;66942;52.138;5.216;2023-04-15T02:16:48;7.7;;;7.0;;
64018;SDS011;66942;52.138;5.216;2023-04-15T02:18:23;9.71;;;7.1;;
64018;SDS011;66942;52.138;5.216;2023-04-15T02:19:59;9.1;;;8.0;;
64018;SDS011;66942;52.138;5.216;2023-04-15T02:21:34;8.0;;;7.2;;
64018;SDS011;66942;52.138;5.216;2023-04-15T02:24:46;7.7;;;7.0;;
64018;SDS011;66942;52.138;5.216;2023-04-15T02:26:21;8.1;;;7.3;;
64018;SDS011;66942;52.138;5.216;2023-04-15T02:27:57;8.0;;;7.2;;
64018;SDS011;66942;52.138;5.216;2023-04-15T02:31:08;9.71;;;7.7;;
64018;SDS011;66942;52.138;5.216;2023-04-15T02:32:44;7.8;;;7.2;;
64018;SDS011;66942;52.138;5.216;2023-04-15T02:34:20;7.9;;;7.3;;
64018;SDS011;66942;52.138;5.216;2023-04-15T02:37:34;7.7;;;7.1;;
64018;SDS011;66942;52.138;5.216;2023-04-15T02:39:11;7.9;;;7.2;;
64018;SDS011;66942;52.138;5.216;2023-04-15T02:40:47;8.71;;;7.8;;
64018;SDS011;66942;52.138;5.216;2023-04-15T02:43:59;9.1;;;8.1;;
64018;SDS011;66942;52.138;5.216;2023-04-15T02:45:35;8.71;;;8.1;;
64018;SDS011;66942;52.138;5.216;2023-04-15T02:47:11;8.9;;;8.1;;
64018;SDS011;66942;52.138;5.216;2023-04-15T02:48:47;8.6;;;7.9;;
64018;SDS011;66942;52.138;5.216;2023-04-15T02:52:01;8.81;;;8.2;;
64018;SDS011;66942;52.138;5.216;2023-04-15T02:53:37;9.81;;;8.9;;
64018;SDS011;66942;52.138;5.216;2023-04-15T02:55:13;9.6;;;8.81;;
64018;SDS011;66942;52.138;5.216;2023-04-15T02:58:25;8.6;;;8.0;;
64018;SDS011;66942;52.138;5.216;2023-04-15T03:00:02;10.5;;;9.5;;
64018;SDS011;66942;52.138;5.216;2023-04-15T03:01:38;9.4;;;8.71;;
64018;SDS011;66942;52.138;5.216;2023-04-15T03:04:51;10.4;;;9.5;;
64018;SDS011;66942;52.138;5.216;2023-04-15T03:06:27;10.4;;;9.5;;
64018;SDS011;66942;52.138;5.216;2023-04-15T03:08:03;9.21;;;8.4;;
64018;SDS011;66942;52.138;5.216;2023-04-15T03:09:39;10.1;;;9.21;;
64018;SDS011;66942;52.138;5.216;2023-04-15T03:12:51;11.2;;;10.21;;
64018;SDS011;66942;52.138;5.216;2023-04-15T03:14:28;10.0;;;9.1;;
64018;SDS011;66942;52.138;5.216;2023-04-15T03:16:04;9.5;;;8.9;;
64018;SDS011;66942;52.138;5.216;2023-04-15T03:19:17;9.5;;;8.71;;
64018;SDS011;66942;52.138;5.216;2023-04-15T03:20:53;9.9;;;9.0;;
64018;SDS011;66942;52.138;5.216;2023-04-15T03:22:29;10.8;;;9.9;;
64018;SDS011;66942;52.138;5.216;2023-04-15T03:25:41;10.4;;;9.5;;
64018;SDS011;66942;52.138;5.216;2023-04-15T03:27:20;10.9;;;10.1;;
64018;SDS011;66942;52.138;5.216;2023-04-15T03:28:56;10.5;;;9.6;;
64018;SDS011;66942;52.138;5.216;2023-04-15T03:30:33;10.3;;;9.5;;
64018;SDS011;66942;52.138;5.216;2023-04-15T03:33:45;10.3;;;9.31;;
64018;SDS011;66942;52.138;5.216;2023-04-15T03:35:21;10.0;;;9.21;;
64018;SDS011;66942;52.138;5.216;2023-04-15T03:36:57;10.1;;;9.31;;
64018;SDS011;66942;52.138;5.216;2023-04-15T03:40:10;11.5;;;10.4;;
64018;SDS011;66942;52.138;5.216;2023-04-15T03:41:47;11.5;;;10.4;;
64018;SDS011;66942;52.138;5.216;2023-04-15T03:43:23;11.1;;;10.1;;
64018;SDS011;66942;52.138;5.216;2023-04-15T03:46:35;10.8;;;9.9;;
64018;SDS011;66942;52.138;5.216;2023-04-15T03:48:11;9.9;;;9.21;;
64018;SDS011;66942;52.138;5.216;2023-04-15T03:49:47;10.0;;;9.21;;
64018;SDS011;66942;52.138;5.216;2023-04-15T03:53:00;11.0;;;9.9;;
64018;SDS011;66942;52.138;5.216;2023-04-15T03:54:36;10.3;;;9.5;;
64018;SDS011;66942;52.138;5.216;2023-04-15T03:56:12;11.8;;;10.8;;
64018;SDS011;66942;52.138;5.216;2023-04-15T03:57:48;11.6;;;10.6;;
64018;SDS011;66942;52.138;5.216;2023-04-15T04:01:00;12.4;;;11.5;;
64018;SDS011;66942;52.138;5.216;2023-04-15T04:02:36;9.9;;;9.21;;
64018;SDS011;66942;52.138;5.216;2023-04-15T04:04:12;11.8;;;10.7;;
64018;SDS011;66942;52.138;5.216;2023-04-15T04:07:27;10.9;;;10.21;;
64018;SDS011;66942;52.138;5.216;2023-04-15T04:09:03;10.4;;;9.6;;
64018;SDS011;66942;52.138;5.216;2023-04-15T04:10:39;12.3;;;11.3;;
64018;SDS011;66942;52.138;5.216;2023-04-15T04:13:51;12.3;;;11.2;;
64018;SDS011;66942;52.138;5.216;2023-04-15T04:15:28;12.5;;;11.3;;
64018;SDS011;66942;52.138;5.216;2023-04-15T04:17:06;11.3;;;10.4;;
64018;SDS011;66942;52.138;5.216;2023-04-15T04:20:19;12.8;;;11.8;;
64018;SDS011;66942;52.138;5.216;2023-04-15T04:21:56;10.9;;;10.1;;
64018;SDS011;66942;52.138;5.216;2023-04-15T04:23:32;12.6;;;11.4;;
64018;SDS011;66942;52.138;5.216;2023-04-15T04:25:09;11.7;;;10.6;;
64018;SDS011;66942;52.138;5.216;2023-04-15T04:29:59;11.7;;;10.8;;
64018;SDS011;66942;52.138;5.216;2023-04-15T04:31:36;11.5;;;10.6;;
64018;SDS011;66942;52.138;5.216;2023-04-15T04:34:49;12.4;;;11.3;;
64018;SDS011;66942;52.138;5.216;2023-04-15T04:36:25;12.7;;;11.8;;
64018;SDS011;66942;52.138;5.216;2023-04-15T04:38:01;11.5;;;10.6;;
64018;SDS011;66942;52.138;5.216;2023-04-15T04:41:14;12.7;;;11.6;;
64018;SDS011;66942;52.138;5.216;2023-04-15T04:42:50;12.5;;;11.6;;
64018;SDS011;66942;52.138;5.216;2023-04-15T04:44:27;14.6;;;13.2;;
64018;SDS011;66942;52.138;5.216;2023-04-15T04:47:40;11.8;;;11.0;;
64018;SDS011;66942;52.138;5.216;2023-04-15T04:49:17;11.9;;;10.9;;
64018;SDS011;66942;52.138;5.216;2023-04-15T04:50:53;12.9;;;11.8;;
64018;SDS011;66942;52.138;5.216;2023-04-15T04:52:30;13.2;;;12.0;;
64018;SDS011;66942;52.138;5.216;2023-04-15T04:55:45;13.1;;;12.1;;
64018;SDS011;66942;52.138;5.216;2023-04-15T04:58:59;13.2;;;12.2;;
64018;SDS011;66942;52.138;5.216;2023-04-15T05:00:35;12.9;;;11.8;;
64018;SDS011;66942;52.138;5.216;2023-04-15T05:03:48;13.0;;;12.0;;
64018;SDS011;66942;52.138;5.216;2023-04-15T05:05:25;13.7;;;12.6;;
64018;SDS011;66942;52.138;5.216;2023-04-15T05:08:38;13.1;;;12.0;;
64018;SDS011;66942;52.138;5.216;2023-04-15T05:10:14;13.3;;;12.3;;
64018;SDS011;66942;52.138;5.216;2023-04-15T05:11:51;13.8;;;12.6;;
64018;SDS011;66942;52.138;5.216;2023-04-15T05:13:28;12.8;;;11.8;;
64018;SDS011;66942;52.138;5.216;2023-04-15T05:16:42;13.6;;;12.6;;
64018;SDS011;66942;52.138;5.216;2023-04-15T05:18:19;13.1;;;12.2;;
64018;SDS011;66942;52.138;5.216;2023-04-15T05:19:55;12.5;;;11.5;;
64018;SDS011;66942;52.138;5.216;2023-04-15T05:23:08;12.4;;;11.5;;
64018;SDS011;66942;52.138;5.216;2023-04-15T05:26:20;13.2;;;12.1;;
64018;SDS011;66942;52.138;5.216;2023-04-15T05:27:56;13.6;;;12.5;;
64018;SDS011;66942;52.138;5.216;2023-04-15T05:31:09;13.2;;;12.2;;
64018;SDS011;66942;52.138;5.216;2023-04-15T05:32:45;12.7;;;11.7;;
64018;SDS011;66942;52.138;5.216;2023-04-15T05:34:21;12.1;;;11.2;;
64018;SDS011;66942;52.138;5.216;2023-04-15T05:37:34;11.8;;;11.0;;
64018;SDS011;66942;52.138;5.216;2023-04-15T05:39:11;13.1;;;12.1;;
64018;SDS011;66942;52.138;5.216;2023-04-15T05:40:47;12.8;;;11.7;;
64018;SDS011;66942;52.138;5.216;2023-04-15T05:42:23;12.4;;;11.6;;
64018;SDS011;66942;52.138;5.216;2023-04-15T05:45:36;13.1;;;12.3;;
64018;SDS011;66942;52.138;5.216;2023-04-15T05:47:12;12.4;;;11.4;;
64018;SDS011;66942;52.138;5.216;2023-04-15T05:48:48;13.3;;;12.3;;
64018;SDS011;66942;52.138;5.216;2023-04-15T05:52:00;12.8;;;11.9;;
64018;SDS011;66942;52.138;5.216;2023-04-15T05:53:36;12.3;;;11.4;;
64018;SDS011;66942;52.138;5.216;2023-04-15T05:55:13;13.7;;;12.7;;
64018;SDS011;66942;52.138;5.216;2023-04-15T05:58:25;12.8;;;11.9;;
64018;SDS011;66942;52.138;5.216;2023-04-15T06:00:01;11.5;;;10.8;;
64018;SDS011;66942;52.138;5.216;2023-04-15T06:01:38;13.0;;;12.1;;
64018;SDS011;66942;52.138;5.216;2023-04-15T06:04:51;13.3;;;12.2;;
64018;SDS011;66942;52.138;5.216;2023-04-15T06:06:27;14.1;;;13.1;;
64018;SDS011;66942;52.138;5.216;2023-04-15T06:08:03;13.2;;;12.2;;
64018;SDS011;66942;52.138;5.216;2023-04-15T06:09:40;12.5;;;11.6;;
64018;SDS011;66942;52.138;5.216;2023-04-15T06:12:53;13.7;;;12.9;;
64018;SDS011;66942;52.138;5.216;2023-04-15T06:14:29;13.1;;;12.2;;
64018;SDS011;66942;52.138;5.216;2023-04-15T06:16:05;13.0;;;12.2;;
64018;SDS011;66942;52.138;5.216;2023-04-15T06:19:17;13.0;;;12.0;;
64018;SDS011;66942;52.138;5.216;2023-04-15T06:20:53;12.5;;;11.7;;
64018;SDS011;66942;52.138;5.216;2023-04-15T06:22:30;12.6;;;11.8;;
64018;SDS011;66942;52.138;5.216;2023-04-15T06:25:42;13.0;;;12.1;;
64018;SDS011;66942;52.138;5.216;2023-04-15T06:27:18;12.9;;;12.1;;
64018;SDS011;66942;52.138;5.216;2023-04-15T06:28:54;14.0;;;12.9;;
64018;SDS011;66942;52.138;5.216;2023-04-15T06:30:30;12.8;;;12.0;;
64018;SDS011;66942;52.138;5.216;2023-04-15T06:33:44;13.4;;;12.5;;
64018;SDS011;66942;52.138;5.216;2023-04-15T06:35:20;12.8;;;11.9;;
64018;SDS011;66942;52.138;5.216;2023-04-15T06:36:56;13.3;;;12.4;;
64018;SDS011;66942;52.138;5.216;2023-04-15T06:40:09;12.6;;;11.7;;
64018;SDS011;66942;52.138;5.216;2023-04-15T06:41:45;13.5;;;12.5;;
64018;SDS011;66942;52.138;5.216;2023-04-15T06:43:21;13.1;;;12.1;;
64018;SDS011;66942;52.138;5.216;2023-04-15T06:46:33;14.7;;;13.6;;
64018;SDS011;66942;52.138;5.216;2023-04-15T06:48:09;13.4;;;12.4;;
64018;SDS011;66942;52.138;5.216;2023-04-15T06:49:46;14.2;;;13.2;;
64018;SDS011;66942;52.138;5.216;2023-04-15T06:52:58;14.4;;;13.4;;
64018;SDS011;66942;52.138;5.216;2023-04-15T06:54:34;14.9;;;13.8;;
64018;SDS011;66942;52.138;5.216;2023-04-15T06:56:10;14.5;;;13.5;;
64018;SDS011;66942;52.138;5.216;2023-04-15T06:57:46;14.6;;;13.4;;
64018;SDS011;66942;52.138;5.216;2023-04-15T07:00:59;14.2;;;13.2;;
64018;SDS011;66942;52.138;5.216;2023-04-15T07:02:35;14.1;;;13.1;;
64018;SDS011;66942;52.138;5.216;2023-04-15T07:04:11;15.3;;;14.3;;
64018;SDS011;66942;52.138;5.216;2023-04-15T07:07:24;14.7;;;13.7;;
64018;SDS011;66942;52.138;5.216;2023-04-15T07:09:00;14.9;;;14.0;;
64018;SDS011;66942;52.138;5.216;2023-04-15T07:10:36;14.9;;;14.0;;
64018;SDS011;66942;52.138;5.216;2023-04-15T07:13:48;14.1;;;13.2;;
64018;SDS011;66942;52.138;5.216;2023-04-15T07:15:24;15.3;;;14.2;;
64018;SDS011;66942;52.138;5.216;2023-04-15T07:17:01;14.3;;;13.3;;
64018;SDS011;66942;52.138;5.216;2023-04-15T07:18:37;12.8;;;12.0;;
64018;SDS011;66942;52.138;5.216;2023-04-15T07:21:50;13.7;;;12.8;;
64018;SDS011;66942;52.138;5.216;2023-04-15T07:23:26;13.6;;;12.8;;
64018;SDS011;66942;52.138;5.216;2023-04-15T07:25:03;12.9;;;12.1;;
64018;SDS011;66942;52.138;5.216;2023-04-15T07:28:16;13.4;;;12.6;;
64018;SDS011;66942;52.138;5.216;2023-04-15T07:29:52;13.8;;;12.8;;
64018;SDS011;66942;52.138;5.216;2023-04-15T07:31:28;13.2;;;12.4;;
64018;SDS011;66942;52.138;5.216;2023-04-15T07:34:41;13.2;;;12.3;;
64018;SDS011;66942;52.138;5.216;2023-04-15T07:36:17;14.0;;;13.0;;
64018;SDS011;66942;52.138;5.216;2023-04-15T07:37:53;13.2;;;12.3;;
64018;SDS011;66942;52.138;5.216;2023-04-15T07:39:29;12.2;;;11.4;;
64018;SDS011;66942;52.138;5.216;2023-04-15T07:42:41;11.3;;;10.6;;
64018;SDS011;66942;52.138;5.216;2023-04-15T07:44:19;12.4;;;11.5;;
64018;SDS011;66942;52.138;5.216;2023-04-15T07:45:56;11.1;;;10.5;;
64018;SDS011;66942;52.138;5.216;2023-04-15T07:49:08;11.8;;;11.0;;
64018;SDS011;66942;52.138;5.216;2023-04-15T07:50:44;10.21;;;9.5;;
64018;SDS011;66942;52.138;5.216;2023-04-15T07:52:21;11.7;;;10.9;;
64018;SDS011;66942;52.138;5.216;2023-04-15T07:55:33;9.71;;;9.0;;
64018;SDS011;66942;52.138;5.216;2023-04-15T07:57:09;10.7;;;9.9;;
64018;SDS011;66942;52.138;5.216;2023-04-15T07:58:45;10.0;;;9.4;;
64018;SDS011;66942;52.138;5.216;2023-04-15T08:01:58;9.4;;;8.81;;
64018;SDS011;66942;52.138;5.216;2023-04-15T08:03:34;9.4;;;8.9;;
64018;SDS011;66942;52.138;5.216;2023-04-15T08:05:10;9.9;;;9.0;;
64018;SDS011;66942;52.138;5.216;2023-04-15T08:06:47;10.21;;;9.6;;
64018;SDS011;66942;52.138;5.216;2023-04-15T08:09:59;10.4;;;9.6;;
64018;SDS011;66942;52.138;5.216;2023-04-15T08:11:36;9.31;;;8.81;;
64018;SDS011;66942;52.138;5.216;2023-04-15T08:13:12;10.21;;;9.6;;
64018;SDS011;66942;52.138;5.216;2023-04-15T08:16:25;9.9;;;9.31;;
64018;SDS011;66942;52.138;5.216;2023-04-15T08:18:01;10.0;;;9.4;;
64018;SDS011;66942;52.138;5.216;2023-04-15T08:19:37;10.6;;;9.9;;
64018;SDS011;66942;52.138;5.216;2023-04-15T08:22:52;9.6;;;9.0;;
64018;SDS011;66942;52.138;5.216;2023-04-15T08:24:28;9.21;;;8.6;;
64018;SDS011;66942;52.138;5.216;2023-04-15T08:26:06;9.5;;;8.9;;
64018;SDS011;66942;52.138;5.216;2023-04-15T08:27:43;8.81;;;8.31;;
64018;SDS011;66942;52.138;5.216;2023-04-15T08:30:56;9.9;;;9.1;;
64018;SDS011;66942;52.138;5.216;2023-04-15T08:32:32;8.81;;;8.31;;
64018;SDS011;66942;52.138;5.216;2023-04-15T08:34:08;9.4;;;8.71;;
64018;SDS011;66942;52.138;5.216;2023-04-15T08:37:21;9.31;;;8.71;;
64018;SDS011;66942;52.138;5.216;2023-04-15T08:38:57;8.9;;;8.1;;
64018;SDS011;66942;52.138;5.216;2023-04-15T08:40:34;8.31;;;7.8;;
64018;SDS011;66942;52.138;5.216;2023-04-15T08:42:18;8.1;;;7.6;;
64018;SDS011;66942;52.138;5.216;2023-04-15T08:45:40;8.31;;;7.8;;
64018;SDS011;66942;52.138;5.216;2023-04-15T08:47:19;7.8;;;7.1;;
64018;SDS011;66942;52.138;5.216;2023-04-15T08:48:57;8.1;;;7.5;;
64018;SDS011;66942;52.138;5.216;2023-04-15T08:52:10;7.9;;;7.2;;
64018;SDS011;66942;52.138;5.216;2023-04-15T08:53:46;8.81;;;8.2;;
64018;SDS011;66942;52.138;5.216;2023-04-15T08:55:22;8.1;;;7.4;;
64018;SDS011;66942;52.138;5.216;2023-04-15T08:57:02;7.8;;;7.3;;
64018;SDS011;66942;52.138;5.216;2023-04-15T09:00:15;8.0;;;7.5;;
64018;SDS011;66942;52.138;5.216;2023-04-15T09:01:52;7.5;;;7.0;;
64018;SDS011;66942;52.138;5.216;2023-04-15T09:03:29;6.3;;;5.8;;
64018;SDS011;66942;52.138;5.216;2023-04-15T09:06:42;6.1;;;5.6;;
64018;SDS011;66942;52.138;5.216;2023-04-15T09:08:19;5.7;;;5.3;;
64018;SDS011;66942;52.138;5.216;2023-04-15T09:09:56;5.0;;;4.7;;
64018;SDS011;66942;52.138;5.216;2023-04-15T09:11:32;8.2;;;4.91;;
64018;SDS011;66942;52.138;5.216;2023-04-15T09:14:46;4.2;;;3.9;;
64018;SDS011;66942;52.138;5.216;2023-04-15T09:16:23;4.2;;;3.9;;
64018;SDS011;66942;52.138;5.216;2023-04-15T09:17:59;4.1;;;3.8;;
64018;SDS011;66942;52.138;5.216;2023-04-15T09:21:12;4.2;;;3.9;;
64018;SDS011;66942;52.138;5.216;2023-04-15T09:22:50;4.1;;;3.8;;
64018;SDS011;66942;52.138;5.216;2023-04-15T09:24:32;4.5;;;3.9;;
64018;SDS011;66942;52.138;5.216;2023-04-15T09:26:11;4.1;;;3.8;;
64018;SDS011;66942;52.138;5.216;2023-04-15T09:29:29;4.2;;;3.9;;
64018;SDS011;66942;52.138;5.216;2023-04-15T09:31:05;4.2;;;3.9;;
64018;SDS011;66942;52.138;5.216;2023-04-15T09:32:47;5.6;;;5.2;;
64018;SDS011;66942;52.138;5.216;2023-04-15T09:36:10;5.5;;;5.0;;
64018;SDS011;66942;52.138;5.216;2023-04-15T09:37:48;6.0;;;5.6;;
64018;SDS011;66942;52.138;5.216;2023-04-15T09:39:25;5.8;;;5.3;;
64018;SDS011;66942;52.138;5.216;2023-04-15T09:41:01;6.2;;;5.3;;
64018;SDS011;66942;52.138;5.216;2023-04-15T09:44:29;5.9;;;5.4;;
64018;SDS011;66942;52.138;5.216;2023-04-15T09:46:06;5.6;;;5.2;;
64018;SDS011;66942;52.138;5.216;2023-04-15T09:47:42;6.3;;;5.8;;
64018;SDS011;66942;52.138;5.216;2023-04-15T09:49:18;6.0;;;5.6;;
64018;SDS011;66942;52.138;5.216;2023-04-15T09:52:38;6.3;;;5.8;;
64018;SDS011;66942;52.138;5.216;2023-04-15T09:54:17;5.9;;;5.4;;
64018;SDS011;66942;52.138;5.216;2023-04-15T09:55:55;6.1;;;5.7;;
64018;SDS011;66942;52.138;5.216;2023-04-15T09:59:09;6.2;;;5.3;;
64018;SDS011;66942;52.138;5.216;2023-04-15T10:00:46;5.3;;;5.0;;
64018;SDS011;66942;52.138;5.216;2023-04-15T10:02:23;4.5;;;4.2;;
64018;SDS011;66942;52.138;5.216;2023-04-15T10:04:02;4.7;;;4.3;;
64018;SDS011;66942;52.138;5.216;2023-04-15T10:07:16;3.8;;;3.6;;
64018;SDS011;66942;52.138;5.216;2023-04-15T10:08:54;4.0;;;3.7;;
64018;SDS011;66942;52.138;5.216;2023-04-15T10:10:32;4.8;;;4.41;;
64018;SDS011;66942;52.138;5.216;2023-04-15T10:13:47;4.2;;;3.9;;
64018;SDS011;66942;52.138;5.216;2023-04-15T10:15:24;3.9;;;3.7;;
64018;SDS011;66942;52.138;5.216;2023-04-15T10:17:03;3.5;;;3.3;;
64018;SDS011;66942;52.138;5.216;2023-04-15T10:18:41;3.5;;;3.3;;
64018;SDS011;66942;52.138;5.216;2023-04-15T10:21:58;3.8;;;3.4;;
64018;SDS011;66942;52.138;5.216;2023-04-15T10:23:34;3.8;;;3.6;;
64018;SDS011;66942;52.138;5.216;2023-04-15T10:25:10;3.6;;;3.4;;
64018;SDS011;66942;52.138;5.216;2023-04-15T10:28:24;4.41;;;4.1;;
64018;SDS011;66942;52.138;5.216;2023-04-15T10:30:02;4.0;;;3.8;;
64018;SDS011;66942;52.138;5.216;2023-04-15T10:31:39;4.1;;;3.9;;
64018;SDS011;66942;52.138;5.216;2023-04-15T10:33:16;4.2;;;4.0;;
64018;SDS011;66942;52.138;5.216;2023-04-15T10:36:32;4.0;;;3.8;;
64018;SDS011;66942;52.138;5.216;2023-04-15T10:38:41;4.3;;;4.0;;
64018;SDS011;66942;52.138;5.216;2023-04-15T10:40:22;4.3;;;4.0;;
64018;SDS011;66942;52.138;5.216;2023-04-15T10:42:05;5.11;;;4.7;;
64018;SDS011;66942;52.138;5.216;2023-04-15T10:43:47;4.61;;;4.3;;
64018;SDS011;66942;52.138;5.216;2023-04-15T10:47:10;4.8;;;4.5;;
64018;SDS011;66942;52.138;5.216;2023-04-15T10:48:49;4.7;;;4.41;;
64018;SDS011;66942;52.138;5.216;2023-04-15T10:50:27;5.2;;;4.91;;
64018;SDS011;66942;52.138;5.216;2023-04-15T10:52:07;5.7;;;5.3;;
64018;SDS011;66942;52.138;5.216;2023-04-15T10:55:20;6.0;;;5.5;;
64018;SDS011;66942;52.138;5.216;2023-04-15T10:57:06;5.5;;;5.2;;
64018;SDS011;66942;52.138;5.216;2023-04-15T10:58:44;5.3;;;4.91;;
64018;SDS011;66942;52.138;5.216;2023-04-15T11:00:23;5.2;;;4.91;;
64018;SDS011;66942;52.138;5.216;2023-04-15T11:03:41;5.2;;;4.91;;
64018;SDS011;66942;52.138;5.216;2023-04-15T11:05:18;4.8;;;4.41;;
64018;SDS011;66942;52.138;5.216;2023-04-15T11:07:04;5.2;;;4.91;;
64018;SDS011;66942;52.138;5.216;2023-04-15T11:10:49;4.7;;;4.41;;
64018;SDS011;66942;52.138;5.216;2023-04-15T11:12:32;4.91;;;4.5;;
64018;SDS011;66942;52.138;5.216;2023-04-15T11:14:13;5.2;;;4.7;;
64018;SDS011;66942;52.138;5.216;2023-04-15T11:15:52;4.7;;;4.41;;
64018;SDS011;66942;52.138;5.216;2023-04-15T11:17:31;5.5;;;5.0;;
64018;SDS011;66942;52.138;5.216;2023-04-15T11:20:43;4.7;;;4.3;;
64018;SDS011;66942;52.138;5.216;2023-04-15T11:22:21;4.91;;;4.5;;
64018;SDS011;66942;52.138;5.216;2023-04-15T11:23:57;4.7;;;4.3;;
64018;SDS011;66942;52.138;5.216;2023-04-15T11:25:34;4.1;;;3.8;;
64018;SDS011;66942;52.138;5.216;2023-04-15T11:28:55;3.9;;;3.6;;
64018;SDS011;66942;52.138;5.216;2023-04-15T11:30:32;3.2;;;3.0;;
64018;SDS011;66942;52.138;5.216;2023-04-15T11:32:09;2.8;;;2.6;;
64018;SDS011;66942;52.138;5.216;2023-04-15T11:35:29;2.31;;;2.1;;
64018;SDS011;66942;52.138;5.216;2023-04-15T11:37:06;2.5;;;2.31;;
64018;SDS011;66942;52.138;5.216;2023-04-15T11:38:43;2.31;;;2.1;;
64018;SDS011;66942;52.138;5.216;2023-04-15T11:40:21;2.5;;;2.1;;
64018;SDS011;66942;52.138;5.216;2023-04-15T11:43:35;2.7;;;2.1;;
64018;SDS011;66942;52.138;5.216;2023-04-15T11:45:12;2.31;;;2.0;;
64018;SDS011;66942;52.138;5.216;2023-04-15T11:46:49;2.4;;;2.21;;
64018;SDS011;66942;52.138;5.216;2023-04-15T11:50:20;3.4;;;2.31;;
64018;SDS011;66942;52.138;5.216;2023-04-15T11:51:58;2.21;;;2.0;;
64018;SDS011;66942;52.138;5.216;2023-04-15T11:53:35;2.6;;;2.4;;
64018;SDS011;66942;52.138;5.216;2023-04-15T11:55:12;2.9;;;2.7;;
64018;SDS011;66942;52.138;5.216;2023-04-15T11:56:49;3.0;;;2.8;;
64018;SDS011;66942;52.138;5.216;2023-04-15T12:00:04;3.3;;;3.0;;
64018;SDS011;66942;52.138;5.216;2023-04-15T12:01:42;2.6;;;2.4;;
64018;SDS011;66942;52.138;5.216;2023-04-15T12:03:20;2.6;;;2.4;;
64018;SDS011;66942;52.138;5.216;2023-04-15T12:06:38;2.8;;;2.6;;
64018;SDS011;66942;52.138;5.216;2023-04-15T12:08:15;2.5;;;2.31;;
64018;SDS011;66942;52.138;5.216;2023-04-15T12:09:53;6.0;;;2.7;;
64018;SDS011;66942;52.138;5.216;2023-04-15T12:11:31;3.3;;;2.0;;
64018;SDS011;66942;52.138;5.216;2023-04-15T12:14:50;3.3;;;2.0;;
64018;SDS011;66942;52.138;5.216;2023-04-15T12:16:27;1.8;;;1.7;;
64018;SDS011;66942;52.138;5.216;2023-04-15T12:18:03;1.7;;;1.6;;
64018;SDS011;66942;52.138;5.216;2023-04-15T12:21:17;2.6;;;2.0;;
64018;SDS011;66942;52.138;5.216;2023-04-15T12:23:03;2.31;;;2.1;;
64018;SDS011;66942;52.138;5.216;2023-04-15T12:24:41;2.5;;;2.31;;
64018;SDS011;66942;52.138;5.216;2023-04-15T12:26:24;2.31;;;2.1;;
64018;SDS011;66942;52.138;5.216;2023-04-15T12:29:46;2.5;;;2.1;;
64018;SDS011;66942;52.138;5.216;2023-04-15T12:31:22;3.2;;;2.8;;
64018;SDS011;66942;52.138;5.216;2023-04-15T12:32:58;2.6;;;2.4;;
64018;SDS011;66942;52.138;5.216;2023-04-15T12:34:35;2.31;;;2.1;;
64018;SDS011;66942;52.138;5.216;2023-04-15T12:37:49;2.1;;;1.9;;
64018;SDS011;66942;52.138;5.216;2023-04-15T12:39:25;2.6;;;2.1;;
64018;SDS011;66942;52.138;5.216;2023-04-15T12:41:03;1.8;;;1.7;;
64018;SDS011;66942;52.138;5.216;2023-04-15T12:44:15;2.21;;;1.6;;
64018;SDS011;66942;52.138;5.216;2023-04-15T12:45:52;2.5;;;2.31;;
64018;SDS011;66942;52.138;5.216;2023-04-15T12:47:28;3.1;;;1.9;;
64018;SDS011;66942;52.138;5.216;2023-04-15T12:50:40;2.7;;;2.1;;
64018;SDS011;66942;52.138;5.216;2023-04-15T12:52:16;1.9;;;1.7;;
64018;SDS011;66942;52.138;5.216;2023-04-15T12:53:53;1.9;;;1.8;;